sensor_id;sensor_type;location;lat;lon;timestamp;P1;durP1;ratioP1;P2;durP2;ratioP2
17985;SDS011;9118;48.122;11.546;2023-04-15T00:02:14;5.40;;;4.40;;
17985;SDS011;9118;48.122;11.546;2023-04-15T00:04:43;6.93;;;4.20;;
17985;SDS011;9118;48.122;11.546;2023-04-15T00:07:11;6.47;;;4.07;;
17985;SDS011;9118;48.122;11.546;2023-04-15T00:09:39;8.30;;;4.50;;
17985;SDS011;9118;48.122;11.546;2023-04-15T00:12:08;8.27;;;4.07;;
17985;SDS011;9118;48.122;11.546;2023-04-15T00:14:39;4.53;;;3.53;;
17985;SDS011;9118;48.122;11.546;2023-04-15T00:17:08;6.33;;;3.73;;
17985;SDS011;9118;48.122;11.546;2023-04-15T00:19:38;5.10;;;3.63;;
17985;SDS011;9118;48.122;11.546;2023-04-15T00:22:07;6.30;;;3.47;;
17985;SDS011;9118;48.122;11.546;2023-04-15T00:24:34;5.77;;;3.80;;
17985;SDS011;9118;48.122;11.546;2023-04-15T00:27:03;7.33;;;4.80;;
17985;SDS011;9118;48.122;11.546;2023-04-15T00:29:30;7.10;;;5.13;;
17985;SDS011;9118;48.122;11.546;2023-04-15T00:31:59;5.53;;;4.43;;
17985;SDS011;9118;48.122;11.546;2023-04-15T00:37:25;5.13;;;4.57;;
17985;SDS011;9118;48.122;11.546;2023-04-15T00:39:54;5.63;;;5.00;;
17985;SDS011;9118;48.122;11.546;2023-04-15T00:42:24;5.77;;;4.20;;
17985;SDS011;9118;48.122;11.546;2023-04-15T00:44:54;4.10;;;3.67;;
17985;SDS011;9118;48.122;11.546;2023-04-15T00:47:27;6.30;;;4.03;;
17985;SDS011;9118;48.122;11.546;2023-04-15T00:49:58;5.63;;;3.90;;
17985;SDS011;9118;48.122;11.546;2023-04-15T00:52:26;8.70;;;4.17;;
17985;SDS011;9118;48.122;11.546;2023-04-15T00:54:57;7.40;;;4.03;;
17985;SDS011;9118;48.122;11.546;2023-04-15T00:57:32;5.67;;;3.70;;
17985;SDS011;9118;48.122;11.546;2023-04-15T01:00:04;6.50;;;3.80;;
17985;SDS011;9118;48.122;11.546;2023-04-15T01:02:34;5.57;;;3.70;;
17985;SDS011;9118;48.122;11.546;2023-04-15T01:05:04;6.67;;;4.27;;
17985;SDS011;9118;48.122;11.546;2023-04-15T01:07:32;7.70;;;3.80;;
17985;SDS011;9118;48.122;11.546;2023-04-15T01:10:01;6.80;;;3.63;;
17985;SDS011;9118;48.122;11.546;2023-04-15T01:12:29;5.97;;;4.10;;
17985;SDS011;9118;48.122;11.546;2023-04-15T01:14:58;6.83;;;4.20;;
17985;SDS011;9118;48.122;11.546;2023-04-15T01:17:27;8.43;;;3.60;;
17985;SDS011;9118;48.122;11.546;2023-04-15T01:19:55;5.80;;;3.87;;
17985;SDS011;9118;48.122;11.546;2023-04-15T01:22:25;5.93;;;3.80;;
17985;SDS011;9118;48.122;11.546;2023-04-15T01:24:56;6.03;;;3.70;;
17985;SDS011;9118;48.122;11.546;2023-04-15T01:27:33;5.63;;;3.90;;
17985;SDS011;9118;48.122;11.546;2023-04-15T01:30:06;6.57;;;3.80;;
17985;SDS011;9118;48.122;11.546;2023-04-15T01:32:34;6.50;;;4.20;;
17985;SDS011;9118;48.122;11.546;2023-04-15T01:35:02;6.13;;;4.03;;
17985;SDS011;9118;48.122;11.546;2023-04-15T01:37:30;6.00;;;3.70;;
17985;SDS011;9118;48.122;11.546;2023-04-15T01:39:58;6.47;;;3.93;;
17985;SDS011;9118;48.122;11.546;2023-04-15T01:42:27;5.33;;;3.63;;
17985;SDS011;9118;48.122;11.546;2023-04-15T01:44:56;7.27;;;4.37;;
17985;SDS011;9118;48.122;11.546;2023-04-15T01:47:24;6.57;;;4.07;;
17985;SDS011;9118;48.122;11.546;2023-04-15T01:49:52;5.90;;;4.40;;
17985;SDS011;9118;48.122;11.546;2023-04-15T01:52:20;7.30;;;4.10;;
17985;SDS011;9118;48.122;11.546;2023-04-15T01:54:48;6.67;;;4.60;;
17985;SDS011;9118;48.122;11.546;2023-04-15T01:57:15;7.37;;;4.73;;
17985;SDS011;9118;48.122;11.546;2023-04-15T01:59:43;6.57;;;4.53;;
17985;SDS011;9118;48.122;11.546;2023-04-15T02:02:12;6.53;;;4.57;;
17985;SDS011;9118;48.122;11.546;2023-04-15T02:04:41;6.93;;;4.47;;
17985;SDS011;9118;48.122;11.546;2023-04-15T02:07:09;5.53;;;4.60;;
17985;SDS011;9118;48.122;11.546;2023-04-15T02:09:38;9.17;;;4.87;;
17985;SDS011;9118;48.122;11.546;2023-04-15T02:12:05;8.57;;;5.10;;
17985;SDS011;9118;48.122;11.546;2023-04-15T02:14:33;6.33;;;4.50;;
17985;SDS011;9118;48.122;11.546;2023-04-15T02:17:01;7.03;;;4.50;;
17985;SDS011;9118;48.122;11.546;2023-04-15T02:19:34;7.23;;;5.20;;
17985;SDS011;9118;48.122;11.546;2023-04-15T02:22:01;6.00;;;4.40;;
17985;SDS011;9118;48.122;11.546;2023-04-15T02:24:31;6.90;;;4.17;;
17985;SDS011;9118;48.122;11.546;2023-04-15T02:27:02;6.37;;;3.90;;
17985;SDS011;9118;48.122;11.546;2023-04-15T02:29:30;5.27;;;3.60;;
17985;SDS011;9118;48.122;11.546;2023-04-15T02:31:59;4.87;;;3.80;;
17985;SDS011;9118;48.122;11.546;2023-04-15T02:34:27;8.37;;;4.40;;
17985;SDS011;9118;48.122;11.546;2023-04-15T02:36:57;5.50;;;3.97;;
17985;SDS011;9118;48.122;11.546;2023-04-15T02:39:25;8.17;;;4.70;;
17985;SDS011;9118;48.122;11.546;2023-04-15T02:41:53;8.13;;;4.87;;
17985;SDS011;9118;48.122;11.546;2023-04-15T02:44:23;9.90;;;4.23;;
17985;SDS011;9118;48.122;11.546;2023-04-15T02:46:51;6.40;;;4.90;;
17985;SDS011;9118;48.122;11.546;2023-04-15T02:49:22;6.90;;;4.20;;
17985;SDS011;9118;48.122;11.546;2023-04-15T02:51:51;6.00;;;5.10;;
17985;SDS011;9118;48.122;11.546;2023-04-15T02:54:22;6.30;;;3.83;;
17985;SDS011;9118;48.122;11.546;2023-04-15T02:56:49;5.77;;;3.87;;
17985;SDS011;9118;48.122;11.546;2023-04-15T02:59:19;4.90;;;3.47;;
17985;SDS011;9118;48.122;11.546;2023-04-15T03:01:48;7.67;;;4.20;;
17985;SDS011;9118;48.122;11.546;2023-04-15T03:04:15;5.77;;;4.03;;
17985;SDS011;9118;48.122;11.546;2023-04-15T03:06:43;5.37;;;3.87;;
17985;SDS011;9118;48.122;11.546;2023-04-15T03:09:11;7.60;;;3.60;;
17985;SDS011;9118;48.122;11.546;2023-04-15T03:11:42;6.00;;;4.03;;
17985;SDS011;9118;48.122;11.546;2023-04-15T03:14:09;6.10;;;4.40;;
17985;SDS011;9118;48.122;11.546;2023-04-15T03:16:37;6.47;;;3.90;;
17985;SDS011;9118;48.122;11.546;2023-04-15T03:19:04;6.10;;;4.13;;
17985;SDS011;9118;48.122;11.546;2023-04-15T03:21:32;8.77;;;4.47;;
17985;SDS011;9118;48.122;11.546;2023-04-15T03:24:00;5.87;;;3.73;;
17985;SDS011;9118;48.122;11.546;2023-04-15T03:26:27;6.10;;;3.93;;
17985;SDS011;9118;48.122;11.546;2023-04-15T03:28:57;5.53;;;3.50;;
17985;SDS011;9118;48.122;11.546;2023-04-15T03:31:27;8.13;;;4.17;;
17985;SDS011;9118;48.122;11.546;2023-04-15T03:33:56;7.00;;;4.07;;
17985;SDS011;9118;48.122;11.546;2023-04-15T03:36:26;6.07;;;3.87;;
17985;SDS011;9118;48.122;11.546;2023-04-15T03:38:55;7.37;;;3.90;;
17985;SDS011;9118;48.122;11.546;2023-04-15T03:41:23;7.37;;;3.90;;
17985;SDS011;9118;48.122;11.546;2023-04-15T03:43:52;6.50;;;3.77;;
17985;SDS011;9118;48.122;11.546;2023-04-15T03:46:25;3.67;;;3.33;;
17985;SDS011;9118;48.122;11.546;2023-04-15T03:48:53;9.03;;;3.70;;
17985;SDS011;9118;48.122;11.546;2023-04-15T03:51:24;6.20;;;3.80;;
17985;SDS011;9118;48.122;11.546;2023-04-15T03:53:51;5.63;;;3.67;;
17985;SDS011;9118;48.122;11.546;2023-04-15T03:56:19;4.57;;;3.33;;
17985;SDS011;9118;48.122;11.546;2023-04-15T03:58:47;6.23;;;4.17;;
17985;SDS011;9118;48.122;11.546;2023-04-15T04:01:16;6.03;;;3.90;;
17985;SDS011;9118;48.122;11.546;2023-04-15T04:03:45;6.37;;;3.57;;
17985;SDS011;9118;48.122;11.546;2023-04-15T04:06:13;5.77;;;3.73;;
17985;SDS011;9118;48.122;11.546;2023-04-15T04:08:41;5.60;;;3.70;;
17985;SDS011;9118;48.122;11.546;2023-04-15T04:11:09;5.97;;;3.77;;
17985;SDS011;9118;48.122;11.546;2023-04-15T04:13:37;5.33;;;3.70;;
17985;SDS011;9118;48.122;11.546;2023-04-15T04:16:05;4.60;;;3.40;;
17985;SDS011;9118;48.122;11.546;2023-04-15T04:18:34;6.27;;;4.10;;
17985;SDS011;9118;48.122;11.546;2023-04-15T04:21:03;6.97;;;3.70;;
17985;SDS011;9118;48.122;11.546;2023-04-15T04:23:30;6.60;;;3.37;;
17985;SDS011;9118;48.122;11.546;2023-04-15T04:25:58;7.73;;;3.50;;
17985;SDS011;9118;48.122;11.546;2023-04-15T04:28:26;5.63;;;3.67;;
17985;SDS011;9118;48.122;11.546;2023-04-15T04:30:54;7.70;;;3.07;;
17985;SDS011;9118;48.122;11.546;2023-04-15T04:33:24;7.23;;;4.03;;
17985;SDS011;9118;48.122;11.546;2023-04-15T04:35:53;9.53;;;4.17;;
17985;SDS011;9118;48.122;11.546;2023-04-15T04:38:21;5.60;;;3.60;;
17985;SDS011;9118;48.122;11.546;2023-04-15T04:40:49;7.67;;;3.80;;
17985;SDS011;9118;48.122;11.546;2023-04-15T04:43:16;6.60;;;3.70;;
17985;SDS011;9118;48.122;11.546;2023-04-15T04:45:44;5.00;;;3.43;;
17985;SDS011;9118;48.122;11.546;2023-04-15T04:48:11;5.10;;;3.93;;
17985;SDS011;9118;48.122;11.546;2023-04-15T04:50:39;5.97;;;4.00;;
17985;SDS011;9118;48.122;11.546;2023-04-15T04:53:08;6.37;;;4.53;;
17985;SDS011;9118;48.122;11.546;2023-04-15T04:55:36;4.60;;;3.73;;
17985;SDS011;9118;48.122;11.546;2023-04-15T04:58:03;6.77;;;3.90;;
17985;SDS011;9118;48.122;11.546;2023-04-15T05:00:31;7.13;;;4.17;;
17985;SDS011;9118;48.122;11.546;2023-04-15T05:02:59;4.80;;;3.87;;
17985;SDS011;9118;48.122;11.546;2023-04-15T05:05:26;4.93;;;3.27;;
17985;SDS011;9118;48.122;11.546;2023-04-15T05:07:54;7.10;;;3.50;;
17985;SDS011;9118;48.122;11.546;2023-04-15T05:10:23;7.60;;;3.53;;
17985;SDS011;9118;48.122;11.546;2023-04-15T05:12:50;8.20;;;3.50;;
17985;SDS011;9118;48.122;11.546;2023-04-15T05:15:18;4.47;;;3.40;;
17985;SDS011;9118;48.122;11.546;2023-04-15T05:17:46;4.73;;;3.30;;
17985;SDS011;9118;48.122;11.546;2023-04-15T05:20:13;5.37;;;3.17;;
17985;SDS011;9118;48.122;11.546;2023-04-15T05:22:41;6.60;;;3.27;;
17985;SDS011;9118;48.122;11.546;2023-04-15T05:25:09;6.13;;;3.10;;
17985;SDS011;9118;48.122;11.546;2023-04-15T05:27:38;6.90;;;3.23;;
17985;SDS011;9118;48.122;11.546;2023-04-15T05:30:06;7.60;;;2.97;;
17985;SDS011;9118;48.122;11.546;2023-04-15T05:32:34;5.40;;;2.77;;
17985;SDS011;9118;48.122;11.546;2023-04-15T05:35:03;3.07;;;2.70;;
17985;SDS011;9118;48.122;11.546;2023-04-15T05:37:30;3.77;;;2.93;;
17985;SDS011;9118;48.122;11.546;2023-04-15T05:39:58;4.97;;;2.93;;
17985;SDS011;9118;48.122;11.546;2023-04-15T05:42:26;4.70;;;2.97;;
17985;SDS011;9118;48.122;11.546;2023-04-15T05:44:55;5.00;;;2.67;;
17985;SDS011;9118;48.122;11.546;2023-04-15T05:47:23;4.30;;;2.93;;
17985;SDS011;9118;48.122;11.546;2023-04-15T05:49:50;7.87;;;3.50;;
17985;SDS011;9118;48.122;11.546;2023-04-15T05:52:19;4.03;;;2.67;;
17985;SDS011;9118;48.122;11.546;2023-04-15T05:54:47;5.30;;;2.77;;
17985;SDS011;9118;48.122;11.546;2023-04-15T05:57:14;5.90;;;2.83;;
17985;SDS011;9118;48.122;11.546;2023-04-15T05:59:41;8.67;;;4.23;;
17985;SDS011;9118;48.122;11.546;2023-04-15T06:02:10;8.47;;;3.70;;
17985;SDS011;9118;48.122;11.546;2023-04-15T06:04:38;4.53;;;2.83;;
17985;SDS011;9118;48.122;11.546;2023-04-15T06:07:06;3.70;;;2.50;;
17985;SDS011;9118;48.122;11.546;2023-04-15T06:09:34;4.27;;;2.80;;
17985;SDS011;9118;48.122;11.546;2023-04-15T06:12:01;5.47;;;3.00;;
17985;SDS011;9118;48.122;11.546;2023-04-15T06:14:30;3.27;;;2.80;;
17985;SDS011;9118;48.122;11.546;2023-04-15T06:16:58;5.50;;;3.47;;
17985;SDS011;9118;48.122;11.546;2023-04-15T06:19:27;4.00;;;3.07;;
17985;SDS011;9118;48.122;11.546;2023-04-15T06:21:55;5.00;;;2.43;;
17985;SDS011;9118;48.122;11.546;2023-04-15T06:24:23;4.10;;;2.63;;
17985;SDS011;9118;48.122;11.546;2023-04-15T06:26:51;3.17;;;2.40;;
17985;SDS011;9118;48.122;11.546;2023-04-15T06:29:21;7.67;;;3.43;;
17985;SDS011;9118;48.122;11.546;2023-04-15T06:31:49;2.83;;;2.50;;
17985;SDS011;9118;48.122;11.546;2023-04-15T06:34:17;5.37;;;2.40;;
17985;SDS011;9118;48.122;11.546;2023-04-15T06:36:46;4.20;;;2.57;;
17985;SDS011;9118;48.122;11.546;2023-04-15T06:39:13;4.87;;;2.70;;
17985;SDS011;9118;48.122;11.546;2023-04-15T06:41:41;3.93;;;2.40;;
17985;SDS011;9118;48.122;11.546;2023-04-15T06:44:09;3.87;;;2.20;;
17985;SDS011;9118;48.122;11.546;2023-04-15T06:46:37;3.87;;;2.30;;
17985;SDS011;9118;48.122;11.546;2023-04-15T06:49:04;4.30;;;2.40;;
17985;SDS011;9118;48.122;11.546;2023-04-15T06:51:33;4.70;;;2.33;;
17985;SDS011;9118;48.122;11.546;2023-04-15T06:54:02;4.40;;;2.57;;
17985;SDS011;9118;48.122;11.546;2023-04-15T06:56:30;3.77;;;2.37;;
17985;SDS011;9118;48.122;11.546;2023-04-15T06:58:57;4.23;;;2.60;;
17985;SDS011;9118;48.122;11.546;2023-04-15T07:01:25;4.93;;;2.40;;
17985;SDS011;9118;48.122;11.546;2023-04-15T07:03:53;4.60;;;2.10;;
17985;SDS011;9118;48.122;11.546;2023-04-15T07:06:20;4.10;;;2.03;;
17985;SDS011;9118;48.122;11.546;2023-04-15T07:08:50;2.60;;;2.27;;
17985;SDS011;9118;48.122;11.546;2023-04-15T07:11:22;3.70;;;2.27;;
17985;SDS011;9118;48.122;11.546;2023-04-15T07:13:57;2.90;;;2.00;;
17985;SDS011;9118;48.122;11.546;2023-04-15T07:16:25;2.40;;;2.10;;
17985;SDS011;9118;48.122;11.546;2023-04-15T07:19:02;5.07;;;2.10;;
17985;SDS011;9118;48.122;11.546;2023-04-15T07:21:31;4.27;;;2.73;;
17985;SDS011;9118;48.122;11.546;2023-04-15T07:23:59;7.03;;;2.10;;
17985;SDS011;9118;48.122;11.546;2023-04-15T07:26:30;2.53;;;1.70;;
17985;SDS011;9118;48.122;11.546;2023-04-15T07:28:58;2.43;;;1.90;;
17985;SDS011;9118;48.122;11.546;2023-04-15T07:31:27;4.53;;;2.07;;
17985;SDS011;9118;48.122;11.546;2023-04-15T07:33:57;5.67;;;2.37;;
17985;SDS011;9118;48.122;11.546;2023-04-15T07:36:29;3.77;;;2.20;;
17985;SDS011;9118;48.122;11.546;2023-04-15T07:38:59;5.23;;;2.77;;
17985;SDS011;9118;48.122;11.546;2023-04-15T07:41:29;5.07;;;2.30;;
17985;SDS011;9118;48.122;11.546;2023-04-15T07:43:59;4.77;;;2.20;;
17985;SDS011;9118;48.122;11.546;2023-04-15T07:46:27;6.70;;;2.23;;
17985;SDS011;9118;48.122;11.546;2023-04-15T07:48:55;6.17;;;2.40;;
17985;SDS011;9118;48.122;11.546;2023-04-15T07:51:23;4.07;;;2.23;;
17985;SDS011;9118;48.122;11.546;2023-04-15T07:53:51;4.40;;;2.57;;
17985;SDS011;9118;48.122;11.546;2023-04-15T07:56:19;5.23;;;2.50;;
17985;SDS011;9118;48.122;11.546;2023-04-15T07:58:50;3.90;;;2.20;;
17985;SDS011;9118;48.122;11.546;2023-04-15T08:01:20;4.23;;;2.30;;
17985;SDS011;9118;48.122;11.546;2023-04-15T08:03:48;3.97;;;2.00;;
17985;SDS011;9118;48.122;11.546;2023-04-15T08:06:21;5.07;;;2.10;;
17985;SDS011;9118;48.122;11.546;2023-04-15T08:08:50;5.60;;;2.20;;
17985;SDS011;9118;48.122;11.546;2023-04-15T08:11:20;3.33;;;2.20;;
17985;SDS011;9118;48.122;11.546;2023-04-15T08:13:50;3.13;;;2.47;;
17985;SDS011;9118;48.122;11.546;2023-04-15T08:16:29;3.93;;;2.20;;
17985;SDS011;9118;48.122;11.546;2023-04-15T08:18:57;4.93;;;2.33;;
17985;SDS011;9118;48.122;11.546;2023-04-15T08:21:25;3.13;;;2.10;;
17985;SDS011;9118;48.122;11.546;2023-04-15T08:23:56;5.10;;;2.50;;
17985;SDS011;9118;48.122;11.546;2023-04-15T08:26:25;4.13;;;2.23;;
17985;SDS011;9118;48.122;11.546;2023-04-15T08:28:56;3.93;;;2.30;;
17985;SDS011;9118;48.122;11.546;2023-04-15T08:31:25;4.67;;;2.60;;
17985;SDS011;9118;48.122;11.546;2023-04-15T08:33:55;5.37;;;3.00;;
17985;SDS011;9118;48.122;11.546;2023-04-15T08:36:23;6.37;;;3.07;;
17985;SDS011;9118;48.122;11.546;2023-04-15T08:38:54;3.37;;;2.40;;
17985;SDS011;9118;48.122;11.546;2023-04-15T08:41:25;3.37;;;2.23;;
17985;SDS011;9118;48.122;11.546;2023-04-15T08:43:57;3.27;;;2.53;;
17985;SDS011;9118;48.122;11.546;2023-04-15T08:46:28;4.80;;;2.73;;
17985;SDS011;9118;48.122;11.546;2023-04-15T08:48:58;3.57;;;2.53;;
17985;SDS011;9118;48.122;11.546;2023-04-15T08:51:29;4.53;;;2.47;;
17985;SDS011;9118;48.122;11.546;2023-04-15T08:53:59;3.77;;;2.50;;
17985;SDS011;9118;48.122;11.546;2023-04-15T08:56:30;2.70;;;2.30;;
17985;SDS011;9118;48.122;11.546;2023-04-15T08:59:02;4.03;;;2.63;;
17985;SDS011;9118;48.122;11.546;2023-04-15T09:01:31;3.63;;;2.60;;
17985;SDS011;9118;48.122;11.546;2023-04-15T09:04:01;4.30;;;2.70;;
17985;SDS011;9118;48.122;11.546;2023-04-15T09:06:32;4.13;;;2.63;;
17985;SDS011;9118;48.122;11.546;2023-04-15T09:09:02;3.43;;;2.70;;
17985;SDS011;9118;48.122;11.546;2023-04-15T09:11:34;3.13;;;2.80;;
17985;SDS011;9118;48.122;11.546;2023-04-15T09:14:04;4.40;;;2.73;;
17985;SDS011;9118;48.122;11.546;2023-04-15T09:19:27;5.33;;;3.20;;
17985;SDS011;9118;48.122;11.546;2023-04-15T09:21:59;6.13;;;4.10;;
17985;SDS011;9118;48.122;11.546;2023-04-15T09:24:33;3.57;;;3.10;;
17985;SDS011;9118;48.122;11.546;2023-04-15T09:27:03;5.20;;;3.03;;
17985;SDS011;9118;48.122;11.546;2023-04-15T09:29:34;6.40;;;3.07;;
17985;SDS011;9118;48.122;11.546;2023-04-15T09:32:10;5.90;;;3.13;;
17985;SDS011;9118;48.122;11.546;2023-04-15T09:34:39;5.67;;;3.27;;
17985;SDS011;9118;48.122;11.546;2023-04-15T09:37:08;8.40;;;3.53;;
17985;SDS011;9118;48.122;11.546;2023-04-15T09:39:47;6.53;;;3.60;;
17985;SDS011;9118;48.122;11.546;2023-04-15T09:42:16;6.37;;;3.57;;
17985;SDS011;9118;48.122;11.546;2023-04-15T09:44:50;6.27;;;3.50;;
17985;SDS011;9118;48.122;11.546;2023-04-15T09:47:28;4.57;;;3.40;;
17985;SDS011;9118;48.122;11.546;2023-04-15T09:49:57;4.87;;;3.77;;
17985;SDS011;9118;48.122;11.546;2023-04-15T09:52:26;5.87;;;3.70;;
17985;SDS011;9118;48.122;11.546;2023-04-15T09:54:56;6.37;;;3.70;;
17985;SDS011;9118;48.122;11.546;2023-04-15T09:57:25;5.50;;;4.10;;
17985;SDS011;9118;48.122;11.546;2023-04-15T10:00:03;5.00;;;3.60;;
17985;SDS011;9118;48.122;11.546;2023-04-15T10:02:36;5.07;;;4.20;;
17985;SDS011;9118;48.122;11.546;2023-04-15T10:05:04;4.97;;;3.50;;
17985;SDS011;9118;48.122;11.546;2023-04-15T10:07:34;6.00;;;4.20;;
17985;SDS011;9118;48.122;11.546;2023-04-15T10:10:06;5.57;;;4.20;;
17985;SDS011;9118;48.122;11.546;2023-04-15T10:12:36;6.23;;;4.37;;
17985;SDS011;9118;48.122;11.546;2023-04-15T10:15:10;5.73;;;4.00;;
17985;SDS011;9118;48.122;11.546;2023-04-15T10:17:43;6.60;;;4.43;;
17985;SDS011;9118;48.122;11.546;2023-04-15T10:20:16;4.90;;;4.03;;
17985;SDS011;9118;48.122;11.546;2023-04-15T10:22:48;5.17;;;4.30;;
17985;SDS011;9118;48.122;11.546;2023-04-15T10:25:17;7.07;;;4.47;;
17985;SDS011;9118;48.122;11.546;2023-04-15T10:27:46;8.40;;;4.53;;
17985;SDS011;9118;48.122;11.546;2023-04-15T10:30:19;6.27;;;4.60;;
17985;SDS011;9118;48.122;11.546;2023-04-15T10:32:51;6.40;;;4.50;;
17985;SDS011;9118;48.122;11.546;2023-04-15T10:35:22;5.63;;;4.40;;
17985;SDS011;9118;48.122;11.546;2023-04-15T10:37:51;4.97;;;4.40;;
17985;SDS011;9118;48.122;11.546;2023-04-15T10:40:27;6.13;;;4.40;;
17985;SDS011;9118;48.122;11.546;2023-04-15T10:42:59;7.27;;;4.83;;
17985;SDS011;9118;48.122;11.546;2023-04-15T10:45:36;7.43;;;4.77;;
17985;SDS011;9118;48.122;11.546;2023-04-15T10:48:06;7.53;;;4.70;;
17985;SDS011;9118;48.122;11.546;2023-04-15T10:50:36;7.63;;;5.33;;
17985;SDS011;9118;48.122;11.546;2023-04-15T10:53:05;8.60;;;5.03;;
17985;SDS011;9118;48.122;11.546;2023-04-15T10:55:36;7.23;;;4.73;;
17985;SDS011;9118;48.122;11.546;2023-04-15T10:58:07;5.53;;;4.70;;
17985;SDS011;9118;48.122;11.546;2023-04-15T11:00:41;4.97;;;4.47;;
17985;SDS011;9118;48.122;11.546;2023-04-15T11:03:33;8.50;;;5.27;;
17985;SDS011;9118;48.122;11.546;2023-04-15T11:06:05;7.37;;;4.70;;
17985;SDS011;9118;48.122;11.546;2023-04-15T11:08:54;7.90;;;5.10;;
17985;SDS011;9118;48.122;11.546;2023-04-15T11:14:27;9.60;;;5.10;;
17985;SDS011;9118;48.122;11.546;2023-04-15T11:17:13;7.47;;;5.20;;
17985;SDS011;9118;48.122;11.546;2023-04-15T11:19:54;7.60;;;5.00;;
17985;SDS011;9118;48.122;11.546;2023-04-15T11:22:25;8.13;;;5.40;;
17985;SDS011;9118;48.122;11.546;2023-04-15T11:24:55;7.70;;;5.57;;
17985;SDS011;9118;48.122;11.546;2023-04-15T11:27:29;7.43;;;5.23;;
17985;SDS011;9118;48.122;11.546;2023-04-15T11:30:14;6.60;;;5.43;;
17985;SDS011;9118;48.122;11.546;2023-04-15T11:32:57;7.57;;;5.33;;
17985;SDS011;9118;48.122;11.546;2023-04-15T11:35:30;8.53;;;5.57;;
17985;SDS011;9118;48.122;11.546;2023-04-15T11:38:02;6.00;;;5.20;;
17985;SDS011;9118;48.122;11.546;2023-04-15T11:40:32;5.90;;;5.17;;
17985;SDS011;9118;48.122;11.546;2023-04-15T11:43:06;7.80;;;5.43;;
17985;SDS011;9118;48.122;11.546;2023-04-15T11:45:37;8.53;;;5.53;;
17985;SDS011;9118;48.122;11.546;2023-04-15T11:48:26;6.10;;;5.43;;
17985;SDS011;9118;48.122;11.546;2023-04-15T11:50:59;7.10;;;6.00;;
17985;SDS011;9118;48.122;11.546;2023-04-15T11:56:18;8.20;;;5.40;;
17985;SDS011;9118;48.122;11.546;2023-04-15T11:58:47;7.00;;;5.63;;
17985;SDS011;9118;48.122;11.546;2023-04-15T12:01:20;8.60;;;5.40;;
17985;SDS011;9118;48.122;11.546;2023-04-15T12:03:59;8.13;;;5.63;;
17985;SDS011;9118;48.122;11.546;2023-04-15T12:06:30;6.93;;;5.37;;
17985;SDS011;9118;48.122;11.546;2023-04-15T12:09:08;8.00;;;4.80;;
17985;SDS011;9118;48.122;11.546;2023-04-15T12:11:38;12.40;;;5.80;;
17985;SDS011;9118;48.122;11.546;2023-04-15T12:14:12;9.77;;;6.07;;
17985;SDS011;9118;48.122;11.546;2023-04-15T12:16:47;7.00;;;5.70;;
17985;SDS011;9118;48.122;11.546;2023-04-15T12:19:21;6.40;;;5.10;;
17985;SDS011;9118;48.122;11.546;2023-04-15T12:21:52;8.30;;;5.77;;
17985;SDS011;9118;48.122;11.546;2023-04-15T12:24:23;7.27;;;5.60;;
17985;SDS011;9118;48.122;11.546;2023-04-15T12:26:51;8.50;;;5.20;;
17985;SDS011;9118;48.122;11.546;2023-04-15T12:29:24;6.03;;;5.13;;
17985;SDS011;9118;48.122;11.546;2023-04-15T12:31:54;6.50;;;5.63;;
17985;SDS011;9118;48.122;11.546;2023-04-15T12:34:36;7.30;;;5.30;;
17985;SDS011;9118;48.122;11.546;2023-04-15T12:37:07;7.53;;;5.80;;
17985;SDS011;9118;48.122;11.546;2023-04-15T12:39:39;8.03;;;5.33;;
17985;SDS011;9118;48.122;11.546;2023-04-15T12:42:08;5.90;;;5.17;;
17985;SDS011;9118;48.122;11.546;2023-04-15T12:44:37;8.13;;;5.63;;
17985;SDS011;9118;48.122;11.546;2023-04-15T12:47:05;8.17;;;5.27;;
17985;SDS011;9118;48.122;11.546;2023-04-15T12:49:35;7.50;;;5.47;;
17985;SDS011;9118;48.122;11.546;2023-04-15T12:52:03;5.10;;;4.60;;
17985;SDS011;9118;48.122;11.546;2023-04-15T12:54:31;6.23;;;4.53;;
17985;SDS011;9118;48.122;11.546;2023-04-15T12:57:00;7.03;;;4.13;;
17985;SDS011;9118;48.122;11.546;2023-04-15T12:59:29;5.03;;;4.17;;
17985;SDS011;9118;48.122;11.546;2023-04-15T13:01:58;6.93;;;4.00;;
17985;SDS011;9118;48.122;11.546;2023-04-15T13:04:27;4.97;;;3.83;;
17985;SDS011;9118;48.122;11.546;2023-04-15T13:07:01;4.40;;;3.50;;
17985;SDS011;9118;48.122;11.546;2023-04-15T13:09:32;3.47;;;3.17;;
17985;SDS011;9118;48.122;11.546;2023-04-15T13:12:00;4.63;;;3.80;;
17985;SDS011;9118;48.122;11.546;2023-04-15T13:14:30;4.33;;;3.93;;
17985;SDS011;9118;48.122;11.546;2023-04-15T13:17:01;4.40;;;3.83;;
17985;SDS011;9118;48.122;11.546;2023-04-15T13:19:34;5.83;;;3.50;;
17985;SDS011;9118;48.122;11.546;2023-04-15T13:22:05;7.47;;;4.10;;
17985;SDS011;9118;48.122;11.546;2023-04-15T13:24:34;6.17;;;4.27;;
17985;SDS011;9118;48.122;11.546;2023-04-15T13:27:05;5.13;;;3.30;;
17985;SDS011;9118;48.122;11.546;2023-04-15T13:29:35;4.70;;;3.90;;
17985;SDS011;9118;48.122;11.546;2023-04-15T13:32:04;6.13;;;3.57;;
17985;SDS011;9118;48.122;11.546;2023-04-15T13:34:35;4.50;;;3.83;;
17985;SDS011;9118;48.122;11.546;2023-04-15T13:37:07;9.87;;;4.60;;
17985;SDS011;9118;48.122;11.546;2023-04-15T13:39:36;5.80;;;4.40;;
17985;SDS011;9118;48.122;11.546;2023-04-15T13:42:04;5.90;;;4.67;;
17985;SDS011;9118;48.122;11.546;2023-04-15T13:44:33;7.90;;;4.40;;
17985;SDS011;9118;48.122;11.546;2023-04-15T13:47:01;5.23;;;4.57;;
17985;SDS011;9118;48.122;11.546;2023-04-15T13:49:30;5.63;;;4.20;;
17985;SDS011;9118;48.122;11.546;2023-04-15T13:51:59;7.23;;;5.30;;
17985;SDS011;9118;48.122;11.546;2023-04-15T13:54:30;6.77;;;5.07;;
17985;SDS011;9118;48.122;11.546;2023-04-15T13:56:58;6.23;;;4.57;;
17985;SDS011;9118;48.122;11.546;2023-04-15T13:59:26;6.17;;;4.97;;
17985;SDS011;9118;48.122;11.546;2023-04-15T14:01:53;5.80;;;4.97;;
17985;SDS011;9118;48.122;11.546;2023-04-15T14:04:23;5.53;;;4.97;;
17985;SDS011;9118;48.122;11.546;2023-04-15T14:06:51;5.37;;;4.60;;
17985;SDS011;9118;48.122;11.546;2023-04-15T14:09:18;6.73;;;4.73;;
17985;SDS011;9118;48.122;11.546;2023-04-15T14:11:49;5.63;;;5.00;;
17985;SDS011;9118;48.122;11.546;2023-04-15T14:14:16;6.33;;;4.60;;
17985;SDS011;9118;48.122;11.546;2023-04-15T14:16:44;6.87;;;5.10;;
17985;SDS011;9118;48.122;11.546;2023-04-15T14:19:12;5.17;;;4.33;;
17985;SDS011;9118;48.122;11.546;2023-04-15T14:21:39;4.70;;;4.20;;
17985;SDS011;9118;48.122;11.546;2023-04-15T14:24:07;8.37;;;4.10;;
17985;SDS011;9118;48.122;11.546;2023-04-15T14:26:34;5.43;;;3.83;;
17985;SDS011;9118;48.122;11.546;2023-04-15T14:29:02;6.50;;;3.93;;
17985;SDS011;9118;48.122;11.546;2023-04-15T14:31:31;6.17;;;4.03;;
17985;SDS011;9118;48.122;11.546;2023-04-15T14:33:58;7.43;;;3.83;;
17985;SDS011;9118;48.122;11.546;2023-04-15T14:36:26;6.83;;;4.10;;
17985;SDS011;9118;48.122;11.546;2023-04-15T14:38:54;5.77;;;3.80;;
17985;SDS011;9118;48.122;11.546;2023-04-15T14:41:21;5.07;;;3.70;;
17985;SDS011;9118;48.122;11.546;2023-04-15T14:43:49;4.27;;;3.87;;
17985;SDS011;9118;48.122;11.546;2023-04-15T14:46:18;5.53;;;3.57;;
17985;SDS011;9118;48.122;11.546;2023-04-15T14:48:46;4.67;;;3.57;;
17985;SDS011;9118;48.122;11.546;2023-04-15T14:51:13;5.50;;;3.53;;
17985;SDS011;9118;48.122;11.546;2023-04-15T14:53:41;7.10;;;4.23;;
17985;SDS011;9118;48.122;11.546;2023-04-15T14:56:09;6.40;;;4.30;;
17985;SDS011;9118;48.122;11.546;2023-04-15T14:58:36;5.47;;;3.57;;
17985;SDS011;9118;48.122;11.546;2023-04-15T15:01:05;5.93;;;4.17;;
17985;SDS011;9118;48.122;11.546;2023-04-15T15:03:34;4.60;;;4.03;;
17985;SDS011;9118;48.122;11.546;2023-04-15T15:06:02;4.77;;;4.30;;
17985;SDS011;9118;48.122;11.546;2023-04-15T15:08:30;5.40;;;4.10;;
17985;SDS011;9118;48.122;11.546;2023-04-15T15:10:58;5.30;;;4.00;;
17985;SDS011;9118;48.122;11.546;2023-04-15T15:13:25;7.47;;;4.53;;
17985;SDS011;9118;48.122;11.546;2023-04-15T15:15:53;6.27;;;4.80;;